• Join FlightAware (Why Join?)
  • Login
  • US Flag GB Flag 
13:02 EDT


 

Airport Tracker/Info


-or-


 

Live Flight TrackerFlight Track Log ✈ UPS1121 ✈ 26-Apr-2013 ✈ KALB - KBDL

Flight Track Log - Related Links

Times and Time Zones

All times are in EDT time to prevent confusion due to time zone crossing. See the UPS1121 flight status page for this flight to view local times or setup timezone preferences in your user account.

Time Position Orientation Groundspeed Altitude Reporting Facility
EDT Latitude Longitude Course Direction KTS MPH feet Rate Location/Type
21:33 42.7653 -73.8061 135° Southeast 164 189 1,700  Level Boston Center
21:34 42.7880 -73.7930 65° Northeast 171 197 2,200 780 Climbing FlightAware
21:34 42.7900 -73.7830 75° East 184 212 2,300 2,400 Climbing FlightAware
21:34 42.7844 -73.7669 56° Northeast 195 224 3,300 2,160 Climbing Boston Center
21:35 42.7740 -73.7520 125° Southeast 229 264 3,400 2,100 Climbing FlightAware
21:35 42.7661 -73.7439 137° Southeast 235 270 3,900 3,780 Climbing Boston Center
21:35 42.7470 -73.7230 142° Southeast 241 277 5,300 3,300 Climbing FlightAware
21:35 42.7370 -73.7120 141° Southeast 256 295 5,900 4,380 Climbing FlightAware
21:36 42.7144 -73.6919 144° Southeast 262 302 7,800 3,120 Climbing Boston Center
21:36 42.7160 -73.6900 142° Southeast 267 307 7,200 -1,440 Descending FlightAware
21:36 42.6920 -73.6650 143° Southeast 267 307 7,200 3,420 Level FlightAware
21:37 42.6528 -73.6258 142° Southeast 273 314 10,600 2,400 Climbing Boston Center
21:38 42.5783 -73.5425 140° Southeast 317 365 11,000 240 Climbing Boston Center
21:39 42.5735 -73.5535 135° Southeast  Level FlightAware Approximate
21:39 42.5042 -73.4622 141° Southeast 343 395 11,100  Level Boston Center
21:40 42.4425 -73.3797 135° Southeast 348 400 11,100 -60 Level Boston Center
21:41 42.3703 -73.2747 133° Southeast 343 395 11,000 -60 Descending Boston Center
21:42 42.3061 -73.1867 135° Southeast 334 384 11,000 -240 Level Boston Center
21:43 42.2442 -73.1217 142° Southeast 306 352 10,600 -1,020 Descending Boston Center
21:44 42.1650 -73.0928 165° South 290 334 9,000 -1,440 Descending Boston Center
21:45 42.0922 -73.0667 165° South 279 321 7,800 -1,440 Descending Boston Center
21:46 42.0217 -73.0464 168° South 273 314 6,200 -1,620 Descending Boston Center
21:47 41.9592 -72.9983 150° Southeast 263 303 4,600 -1,620 Descending Boston Center
21:47 41.9428 -72.9844 148° Southeast 262 302 4,200 -900 Descending Boston Center
21:48 41.9136 -72.9422 133° Southeast 257 296 3,700 -840 Descending Boston Center
21:48 41.8950 -72.9225 142° Southeast 243 280 3,400 -720 Descending Boston Center
21:49 41.8703 -72.8889 135° Southeast 237 273 3,000 -720 Descending Boston Center
21:49 41.8556 -72.8750 145° Southeast 198 228 2,700 -1,020 Descending Boston Center
21:50 41.8475 -72.8275 103° East 211 243 2,000 -900 Descending Boston Center
21:50 41.8497 -72.8081 81° East 177 204 1,800 -300 Descending Boston Center
21:51 41.8683 -72.7803 48° Northeast 143 165 1,700 -120 Descending Boston Center
21:51 41.8789 -72.7719 30° Northeast 142 163 1,700 -540 Level Boston Center
21:52 41.9019 -72.7414 45° Northeast 115 132 1,000 -660 Descending Boston Center
21:53 41.9167 -72.7192 48° Northeast 112 129 600 -720 Descending Boston Center
21:53 41.9250 -72.7081 45° Northeast 114 131 300 -960 Descending Boston Center
21:55 41.9333 -72.6833 45° Northeast  Level FlightAware Approximate